sensor_id;sensor_type;location;lat;lon;timestamp;temperature;humidity
68813;DHT22;55808;48.112;11.552;2022-08-30T00:01:11;16.50;99.90
68813;DHT22;55808;48.112;11.552;2022-08-30T00:03:42;16.50;99.90
68813;DHT22;55808;48.112;11.552;2022-08-30T00:06:11;16.50;99.90
68813;DHT22;55808;48.112;11.552;2022-08-30T00:08:37;16.50;99.90
68813;DHT22;55808;48.112;11.552;2022-08-30T00:11:05;16.40;99.90
68813;DHT22;55808;48.112;11.552;2022-08-30T00:13:32;16.40;99.90
68813;DHT22;55808;48.112;11.552;2022-08-30T00:15:58;16.40;99.90
68813;DHT22;55808;48.112;11.552;2022-08-30T00:18:24;16.40;99.90
68813;DHT22;55808;48.112;11.552;2022-08-30T00:20:50;16.40;99.90
68813;DHT22;55808;48.112;11.552;2022-08-30T00:23:17;16.50;99.90
68813;DHT22;55808;48.112;11.552;2022-08-30T00:25:44;16.40;99.90
68813;DHT22;55808;48.112;11.552;2022-08-30T00:28:11;16.30;99.90
68813;DHT22;55808;48.112;11.552;2022-08-30T00:30:37;16.30;99.90
68813;DHT22;55808;48.112;11.552;2022-08-30T00:33:04;16.20;99.90
68813;DHT22;55808;48.112;11.552;2022-08-30T00:35:30;16.10;99.90
68813;DHT22;55808;48.112;11.552;2022-08-30T00:37:55;16.10;99.90
68813;DHT22;55808;48.112;11.552;2022-08-30T00:40:22;16.20;99.90
68813;DHT22;55808;48.112;11.552;2022-08-30T00:42:48;16.20;99.90
68813;DHT22;55808;48.112;11.552;2022-08-30T00:45:18;16.20;99.90
68813;DHT22;55808;48.112;11.552;2022-08-30T00:47:45;16.10;99.90
68813;DHT22;55808;48.112;11.552;2022-08-30T00:50:13;16.10;99.90
68813;DHT22;55808;48.112;11.552;2022-08-30T00:52:41;16.10;99.90
68813;DHT22;55808;48.112;11.552;2022-08-30T00:55:09;16.10;99.90
68813;DHT22;55808;48.112;11.552;2022-08-30T00:57:36;16.10;99.90
68813;DHT22;55808;48.112;11.552;2022-08-30T01:00:03;16.10;99.90
68813;DHT22;55808;48.112;11.552;2022-08-30T01:02:29;16.00;99.90
68813;DHT22;55808;48.112;11.552;2022-08-30T01:04:58;16.00;99.90
68813;DHT22;55808;48.112;11.552;2022-08-30T01:07:24;16.10;99.90
68813;DHT22;55808;48.112;11.552;2022-08-30T01:09:50;16.10;99.90
68813;DHT22;55808;48.112;11.552;2022-08-30T01:12:16;16.10;99.90
68813;DHT22;55808;48.112;11.552;2022-08-30T01:14:41;16.10;99.90
68813;DHT22;55808;48.112;11.552;2022-08-30T01:17:08;16.00;99.90
68813;DHT22;55808;48.112;11.552;2022-08-30T01:19:50;16.00;99.90
68813;DHT22;55808;48.112;11.552;2022-08-30T01:24:46;15.90;99.90
68813;DHT22;55808;48.112;11.552;2022-08-30T01:27:16;15.90;99.90
68813;DHT22;55808;48.112;11.552;2022-08-30T01:29:42;15.80;99.90
68813;DHT22;55808;48.112;11.552;2022-08-30T01:32:20;15.80;99.90
68813;DHT22;55808;48.112;11.552;2022-08-30T01:34:46;15.80;99.90
68813;DHT22;55808;48.112;11.552;2022-08-30T01:37:14;15.80;99.90
68813;DHT22;55808;48.112;11.552;2022-08-30T01:39:44;15.80;99.90
68813;DHT22;55808;48.112;11.552;2022-08-30T01:42:15;15.80;99.90
68813;DHT22;55808;48.112;11.552;2022-08-30T01:44:43;15.70;99.90
68813;DHT22;55808;48.112;11.552;2022-08-30T01:47:09;15.70;99.90
68813;DHT22;55808;48.112;11.552;2022-08-30T01:49:36;15.70;99.90
68813;DHT22;55808;48.112;11.552;2022-08-30T01:52:03;15.70;99.90
68813;DHT22;55808;48.112;11.552;2022-08-30T01:54:30;15.70;99.90
68813;DHT22;55808;48.112;11.552;2022-08-30T01:56:56;15.80;99.90
68813;DHT22;55808;48.112;11.552;2022-08-30T01:59:21;15.70;99.90
68813;DHT22;55808;48.112;11.552;2022-08-30T02:01:47;15.70;99.90
68813;DHT22;55808;48.112;11.552;2022-08-30T02:04:13;15.70;99.90
68813;DHT22;55808;48.112;11.552;2022-08-30T02:06:41;15.60;99.90
68813;DHT22;55808;48.112;11.552;2022-08-30T02:09:07;15.60;99.90
68813;DHT22;55808;48.112;11.552;2022-08-30T02:11:33;15.60;99.90
68813;DHT22;55808;48.112;11.552;2022-08-30T02:13:58;15.50;99.90
68813;DHT22;55808;48.112;11.552;2022-08-30T02:16:24;15.50;99.90
68813;DHT22;55808;48.112;11.552;2022-08-30T02:18:51;15.50;99.90
68813;DHT22;55808;48.112;11.552;2022-08-30T02:21:18;15.50;99.90
68813;DHT22;55808;48.112;11.552;2022-08-30T02:23:44;15.50;99.90
68813;DHT22;55808;48.112;11.552;2022-08-30T02:26:11;15.50;99.90
68813;DHT22;55808;48.112;11.552;2022-08-30T02:28:38;15.50;99.90
68813;DHT22;55808;48.112;11.552;2022-08-30T02:31:03;15.50;99.90
68813;DHT22;55808;48.112;11.552;2022-08-30T02:33:29;15.50;99.90
68813;DHT22;55808;48.112;11.552;2022-08-30T02:35:56;15.50;99.90
68813;DHT22;55808;48.112;11.552;2022-08-30T02:38:22;15.60;99.90
68813;DHT22;55808;48.112;11.552;2022-08-30T02:40:48;15.50;99.90
68813;DHT22;55808;48.112;11.552;2022-08-30T02:43:15;15.60;99.90
68813;DHT22;55808;48.112;11.552;2022-08-30T02:45:41;15.60;99.90
68813;DHT22;55808;48.112;11.552;2022-08-30T02:48:07;15.50;99.90
68813;DHT22;55808;48.112;11.552;2022-08-30T02:50:33;15.40;99.90
68813;DHT22;55808;48.112;11.552;2022-08-30T02:52:58;15.40;99.90
68813;DHT22;55808;48.112;11.552;2022-08-30T02:55:24;15.30;99.90
68813;DHT22;55808;48.112;11.552;2022-08-30T02:57:50;15.40;99.90
68813;DHT22;55808;48.112;11.552;2022-08-30T03:00:17;15.40;99.90
68813;DHT22;55808;48.112;11.552;2022-08-30T03:02:43;15.40;99.90
68813;DHT22;55808;48.112;11.552;2022-08-30T03:05:12;15.40;99.90
68813;DHT22;55808;48.112;11.552;2022-08-30T03:07:39;15.40;99.90
68813;DHT22;55808;48.112;11.552;2022-08-30T03:10:05;15.40;99.90
68813;DHT22;55808;48.112;11.552;2022-08-30T03:12:31;15.40;99.90
68813;DHT22;55808;48.112;11.552;2022-08-30T03:14:57;15.30;99.90
68813;DHT22;55808;48.112;11.552;2022-08-30T03:17:23;15.30;99.90
68813;DHT22;55808;48.112;11.552;2022-08-30T03:19:48;15.20;99.90
68813;DHT22;55808;48.112;11.552;2022-08-30T03:22:14;15.20;99.90
68813;DHT22;55808;48.112;11.552;2022-08-30T03:24:40;15.20;99.90
68813;DHT22;55808;48.112;11.552;2022-08-30T03:27:06;15.20;99.90
68813;DHT22;55808;48.112;11.552;2022-08-30T03:29:33;15.20;99.90
68813;DHT22;55808;48.112;11.552;2022-08-30T03:31:59;15.20;99.90
68813;DHT22;55808;48.112;11.552;2022-08-30T03:34:25;15.20;99.90
68813;DHT22;55808;48.112;11.552;2022-08-30T03:36:52;15.20;99.90
68813;DHT22;55808;48.112;11.552;2022-08-30T03:39:19;15.20;99.90
68813;DHT22;55808;48.112;11.552;2022-08-30T03:41:45;15.20;99.90
68813;DHT22;55808;48.112;11.552;2022-08-30T03:44:11;15.20;99.90
68813;DHT22;55808;48.112;11.552;2022-08-30T03:46:37;15.10;99.90
68813;DHT22;55808;48.112;11.552;2022-08-30T03:49:03;15.00;99.90
68813;DHT22;55808;48.112;11.552;2022-08-30T03:51:29;15.00;99.90
68813;DHT22;55808;48.112;11.552;2022-08-30T03:53:55;15.00;99.90
68813;DHT22;55808;48.112;11.552;2022-08-30T03:56:21;15.00;99.90
68813;DHT22;55808;48.112;11.552;2022-08-30T03:58:47;15.00;99.90
68813;DHT22;55808;48.112;11.552;2022-08-30T04:01:12;15.00;99.90
68813;DHT22;55808;48.112;11.552;2022-08-30T04:03:38;15.00;99.90
68813;DHT22;55808;48.112;11.552;2022-08-30T04:06:04;15.00;99.90
68813;DHT22;55808;48.112;11.552;2022-08-30T04:08:30;15.00;99.90
68813;DHT22;55808;48.112;11.552;2022-08-30T04:10:55;15.00;99.90
68813;DHT22;55808;48.112;11.552;2022-08-30T04:13:22;15.00;99.90
68813;DHT22;55808;48.112;11.552;2022-08-30T04:15:48;15.00;99.90
68813;DHT22;55808;48.112;11.552;2022-08-30T04:18:14;15.00;99.90
68813;DHT22;55808;48.112;11.552;2022-08-30T04:20:40;15.00;99.90
68813;DHT22;55808;48.112;11.552;2022-08-30T04:23:06;15.00;99.90
68813;DHT22;55808;48.112;11.552;2022-08-30T04:25:33;14.90;99.90
68813;DHT22;55808;48.112;11.552;2022-08-30T04:28:00;14.90;99.90
68813;DHT22;55808;48.112;11.552;2022-08-30T04:30:25;14.90;99.90
68813;DHT22;55808;48.112;11.552;2022-08-30T04:32:51;15.00;99.90
68813;DHT22;55808;48.112;11.552;2022-08-30T04:35:17;14.90;99.90
68813;DHT22;55808;48.112;11.552;2022-08-30T04:37:43;14.90;99.90
68813;DHT22;55808;48.112;11.552;2022-08-30T04:40:09;15.00;99.90
68813;DHT22;55808;48.112;11.552;2022-08-30T04:42:36;14.90;99.90
68813;DHT22;55808;48.112;11.552;2022-08-30T04:45:05;15.00;99.90
68813;DHT22;55808;48.112;11.552;2022-08-30T04:47:31;15.00;99.90
68813;DHT22;55808;48.112;11.552;2022-08-30T04:49:57;15.00;99.90
68813;DHT22;55808;48.112;11.552;2022-08-30T04:52:23;15.00;99.90
68813;DHT22;55808;48.112;11.552;2022-08-30T04:54:54;15.00;99.90
68813;DHT22;55808;48.112;11.552;2022-08-30T04:57:20;15.00;99.90
68813;DHT22;55808;48.112;11.552;2022-08-30T04:59:46;15.00;99.90
68813;DHT22;55808;48.112;11.552;2022-08-30T05:02:12;15.00;99.90
68813;DHT22;55808;48.112;11.552;2022-08-30T05:04:37;15.00;99.90
68813;DHT22;55808;48.112;11.552;2022-08-30T05:07:23;15.00;99.90
68813;DHT22;55808;48.112;11.552;2022-08-30T05:09:49;15.00;99.90
68813;DHT22;55808;48.112;11.552;2022-08-30T05:12:15;15.00;99.90
68813;DHT22;55808;48.112;11.552;2022-08-30T05:14:41;15.00;99.90
68813;DHT22;55808;48.112;11.552;2022-08-30T05:17:07;15.00;99.90
68813;DHT22;55808;48.112;11.552;2022-08-30T05:19:32;15.00;99.90
68813;DHT22;55808;48.112;11.552;2022-08-30T05:21:59;14.90;99.90
68813;DHT22;55808;48.112;11.552;2022-08-30T05:24:24;15.00;99.90
68813;DHT22;55808;48.112;11.552;2022-08-30T05:26:50;15.00;99.90
68813;DHT22;55808;48.112;11.552;2022-08-30T05:29:16;15.00;99.90
68813;DHT22;55808;48.112;11.552;2022-08-30T05:31:42;15.00;99.90
68813;DHT22;55808;48.112;11.552;2022-08-30T05:34:09;15.00;99.90
68813;DHT22;55808;48.112;11.552;2022-08-30T05:36:36;15.00;99.90
68813;DHT22;55808;48.112;11.552;2022-08-30T05:39:04;15.00;99.90
68813;DHT22;55808;48.112;11.552;2022-08-30T05:41:29;15.10;99.90
68813;DHT22;55808;48.112;11.552;2022-08-30T05:43:57;15.20;99.90
68813;DHT22;55808;48.112;11.552;2022-08-30T05:46:24;15.20;99.90
68813;DHT22;55808;48.112;11.552;2022-08-30T05:48:50;15.20;99.90
68813;DHT22;55808;48.112;11.552;2022-08-30T05:51:17;15.30;99.90
68813;DHT22;55808;48.112;11.552;2022-08-30T05:53:44;15.40;99.90
68813;DHT22;55808;48.112;11.552;2022-08-30T05:56:12;15.40;99.90
68813;DHT22;55808;48.112;11.552;2022-08-30T05:58:38;15.50;99.90
68813;DHT22;55808;48.112;11.552;2022-08-30T06:01:04;15.50;99.90
68813;DHT22;55808;48.112;11.552;2022-08-30T06:03:31;15.60;99.90
68813;DHT22;55808;48.112;11.552;2022-08-30T06:05:58;15.60;99.90
68813;DHT22;55808;48.112;11.552;2022-08-30T06:08:24;15.70;99.90
68813;DHT22;55808;48.112;11.552;2022-08-30T06:10:50;15.80;99.90
68813;DHT22;55808;48.112;11.552;2022-08-30T06:13:16;15.90;99.90
68813;DHT22;55808;48.112;11.552;2022-08-30T06:15:42;16.00;99.90
68813;DHT22;55808;48.112;11.552;2022-08-30T06:18:10;16.10;99.90
68813;DHT22;55808;48.112;11.552;2022-08-30T06:20:40;16.20;99.90
68813;DHT22;55808;48.112;11.552;2022-08-30T06:23:07;16.20;99.90
68813;DHT22;55808;48.112;11.552;2022-08-30T06:25:35;16.30;99.90
68813;DHT22;55808;48.112;11.552;2022-08-30T06:28:02;16.30;99.90
68813;DHT22;55808;48.112;11.552;2022-08-30T06:30:27;16.40;99.90
68813;DHT22;55808;48.112;11.552;2022-08-30T06:32:53;16.40;99.90
68813;DHT22;55808;48.112;11.552;2022-08-30T06:35:19;16.50;99.90
68813;DHT22;55808;48.112;11.552;2022-08-30T06:37:44;16.50;99.90
68813;DHT22;55808;48.112;11.552;2022-08-30T06:40:11;16.50;99.90
68813;DHT22;55808;48.112;11.552;2022-08-30T06:42:37;16.60;99.90
68813;DHT22;55808;48.112;11.552;2022-08-30T06:45:03;16.70;99.90
68813;DHT22;55808;48.112;11.552;2022-08-30T06:47:29;16.70;99.90
68813;DHT22;55808;48.112;11.552;2022-08-30T06:49:56;16.70;99.90
68813;DHT22;55808;48.112;11.552;2022-08-30T06:52:22;16.70;99.90
68813;DHT22;55808;48.112;11.552;2022-08-30T06:54:48;16.80;99.90
68813;DHT22;55808;48.112;11.552;2022-08-30T06:57:14;16.80;99.90
68813;DHT22;55808;48.112;11.552;2022-08-30T06:59:39;16.90;99.90
68813;DHT22;55808;48.112;11.552;2022-08-30T07:02:05;16.90;99.90
68813;DHT22;55808;48.112;11.552;2022-08-30T07:04:31;17.10;99.90
68813;DHT22;55808;48.112;11.552;2022-08-30T07:06:57;17.20;99.90
68813;DHT22;55808;48.112;11.552;2022-08-30T07:09:23;17.20;99.90
68813;DHT22;55808;48.112;11.552;2022-08-30T07:11:50;17.30;99.90
68813;DHT22;55808;48.112;11.552;2022-08-30T07:14:16;17.30;99.90
68813;DHT22;55808;48.112;11.552;2022-08-30T07:16:43;17.30;99.90
68813;DHT22;55808;48.112;11.552;2022-08-30T07:19:09;17.40;99.90
68813;DHT22;55808;48.112;11.552;2022-08-30T07:21:41;17.40;99.90
68813;DHT22;55808;48.112;11.552;2022-08-30T07:24:11;17.30;99.90
68813;DHT22;55808;48.112;11.552;2022-08-30T07:26:45;17.40;99.90
68813;DHT22;55808;48.112;11.552;2022-08-30T07:29:13;17.50;99.90
68813;DHT22;55808;48.112;11.552;2022-08-30T07:31:40;17.70;99.90
68813;DHT22;55808;48.112;11.552;2022-08-30T07:34:07;17.80;99.90
68813;DHT22;55808;48.112;11.552;2022-08-30T07:36:34;17.90;99.90
68813;DHT22;55808;48.112;11.552;2022-08-30T07:39:01;18.00;99.90
68813;DHT22;55808;48.112;11.552;2022-08-30T07:41:30;18.00;99.90
68813;DHT22;55808;48.112;11.552;2022-08-30T07:43:56;18.00;99.90
68813;DHT22;55808;48.112;11.552;2022-08-30T07:46:23;17.90;99.90
68813;DHT22;55808;48.112;11.552;2022-08-30T07:48:49;18.00;99.90
68813;DHT22;55808;48.112;11.552;2022-08-30T07:51:17;18.20;99.90
68813;DHT22;55808;48.112;11.552;2022-08-30T07:53:43;18.20;99.90
68813;DHT22;55808;48.112;11.552;2022-08-30T07:56:09;18.20;99.90
68813;DHT22;55808;48.112;11.552;2022-08-30T07:58:35;18.40;99.90
68813;DHT22;55808;48.112;11.552;2022-08-30T08:01:03;18.40;99.90
68813;DHT22;55808;48.112;11.552;2022-08-30T08:03:29;18.50;99.90
68813;DHT22;55808;48.112;11.552;2022-08-30T08:05:55;18.60;99.90
68813;DHT22;55808;48.112;11.552;2022-08-30T08:08:22;18.70;99.90
68813;DHT22;55808;48.112;11.552;2022-08-30T08:10:48;18.80;99.90
68813;DHT22;55808;48.112;11.552;2022-08-30T08:13:13;18.80;99.90
68813;DHT22;55808;48.112;11.552;2022-08-30T08:15:39;18.90;99.90
68813;DHT22;55808;48.112;11.552;2022-08-30T08:18:06;18.90;99.90
68813;DHT22;55808;48.112;11.552;2022-08-30T08:20:33;19.00;99.90
68813;DHT22;55808;48.112;11.552;2022-08-30T08:22:59;19.10;99.90
68813;DHT22;55808;48.112;11.552;2022-08-30T08:25:25;19.10;99.90
68813;DHT22;55808;48.112;11.552;2022-08-30T08:27:51;19.20;99.90
68813;DHT22;55808;48.112;11.552;2022-08-30T08:30:20;19.20;99.90
68813;DHT22;55808;48.112;11.552;2022-08-30T08:32:47;19.30;99.90
68813;DHT22;55808;48.112;11.552;2022-08-30T08:35:14;19.40;99.90
68813;DHT22;55808;48.112;11.552;2022-08-30T08:37:40;19.50;99.90
68813;DHT22;55808;48.112;11.552;2022-08-30T08:40:08;19.60;99.90
68813;DHT22;55808;48.112;11.552;2022-08-30T08:42:56;19.80;99.90
68813;DHT22;55808;48.112;11.552;2022-08-30T08:48:00;20.00;99.90
68813;DHT22;55808;48.112;11.552;2022-08-30T08:50:28;19.90;99.90
68813;DHT22;55808;48.112;11.552;2022-08-30T08:52:55;19.90;99.90
68813;DHT22;55808;48.112;11.552;2022-08-30T08:55:45;19.80;99.90
68813;DHT22;55808;48.112;11.552;2022-08-30T08:58:22;19.90;99.90
68813;DHT22;55808;48.112;11.552;2022-08-30T09:00:48;20.00;99.90
68813;DHT22;55808;48.112;11.552;2022-08-30T09:03:14;20.20;99.90
68813;DHT22;55808;48.112;11.552;2022-08-30T09:05:42;20.20;99.90
68813;DHT22;55808;48.112;11.552;2022-08-30T09:08:12;20.30;99.90
68813;DHT22;55808;48.112;11.552;2022-08-30T09:10:40;20.20;99.90
68813;DHT22;55808;48.112;11.552;2022-08-30T09:13:08;20.40;99.90
68813;DHT22;55808;48.112;11.552;2022-08-30T09:15:34;20.40;99.90
68813;DHT22;55808;48.112;11.552;2022-08-30T09:18:05;20.40;99.90
68813;DHT22;55808;48.112;11.552;2022-08-30T09:20:37;20.40;99.90
68813;DHT22;55808;48.112;11.552;2022-08-30T09:25:59;20.50;99.90
68813;DHT22;55808;48.112;11.552;2022-08-30T09:28:26;20.50;99.90
68813;DHT22;55808;48.112;11.552;2022-08-30T09:31:07;20.40;99.90
68813;DHT22;55808;48.112;11.552;2022-08-30T09:33:33;20.30;99.90
68813;DHT22;55808;48.112;11.552;2022-08-30T09:36:27;20.50;99.90
68813;DHT22;55808;48.112;11.552;2022-08-30T09:39:03;20.70;99.90
68813;DHT22;55808;48.112;11.552;2022-08-30T09:41:37;20.70;99.90
68813;DHT22;55808;48.112;11.552;2022-08-30T09:46:43;20.90;99.90
68813;DHT22;55808;48.112;11.552;2022-08-30T09:49:29;21.10;99.40
68813;DHT22;55808;48.112;11.552;2022-08-30T09:54:52;21.10;99.10
68813;DHT22;55808;48.112;11.552;2022-08-30T10:00:07;21.30;96.80
68813;DHT22;55808;48.112;11.552;2022-08-30T10:02:56;21.50;96.00
68813;DHT22;55808;48.112;11.552;2022-08-30T10:08:29;21.80;96.00
68813;DHT22;55808;48.112;11.552;2022-08-30T10:10:58;21.90;95.20
68813;DHT22;55808;48.112;11.552;2022-08-30T10:13:40;22.10;93.70
68813;DHT22;55808;48.112;11.552;2022-08-30T10:21:36;22.30;95.10
68813;DHT22;55808;48.112;11.552;2022-08-30T10:24:07;22.40;94.50
68813;DHT22;55808;48.112;11.552;2022-08-30T10:29:24;22.70;93.70
68813;DHT22;55808;48.112;11.552;2022-08-30T10:37:00;23.10;92.70
68813;DHT22;55808;48.112;11.552;2022-08-30T10:39:30;23.20;92.50
68813;DHT22;55808;48.112;11.552;2022-08-30T10:42:19;23.40;92.10
68813;DHT22;55808;48.112;11.552;2022-08-30T10:44:54;23.70;90.90
68813;DHT22;55808;48.112;11.552;2022-08-30T10:47:43;23.90;90.00
68813;DHT22;55808;48.112;11.552;2022-08-30T10:50:18;24.30;90.20
68813;DHT22;55808;48.112;11.552;2022-08-30T10:53:15;24.90;86.60
68813;DHT22;55808;48.112;11.552;2022-08-30T10:55:52;27.20;78.80
68813;DHT22;55808;48.112;11.552;2022-08-30T10:58:19;29.20;70.70
68813;DHT22;55808;48.112;11.552;2022-08-30T11:06:30;31.70;62.90
68813;DHT22;55808;48.112;11.552;2022-08-30T11:09:15;32.50;58.50
68813;DHT22;55808;48.112;11.552;2022-08-30T11:14:46;32.80;59.10
68813;DHT22;55808;48.112;11.552;2022-08-30T11:17:39;32.80;53.90
68813;DHT22;55808;48.112;11.552;2022-08-30T11:25:53;32.80;53.70
68813;DHT22;55808;48.112;11.552;2022-08-30T11:31:33;32.40;57.30
68813;DHT22;55808;48.112;11.552;2022-08-30T11:33:59;32.20;53.60
68813;DHT22;55808;48.112;11.552;2022-08-30T11:41:36;32.50;56.90
68813;DHT22;55808;48.112;11.552;2022-08-30T11:44:13;32.50;53.10
68813;DHT22;55808;48.112;11.552;2022-08-30T11:46:51;32.60;53.50
68813;DHT22;55808;48.112;11.552;2022-08-30T11:57:30;32.60;52.30
68813;DHT22;55808;48.112;11.552;2022-08-30T12:00:11;32.30;53.60
68813;DHT22;55808;48.112;11.552;2022-08-30T12:02:57;32.30;52.00
68813;DHT22;55808;48.112;11.552;2022-08-30T12:10:49;31.50;53.70
68813;DHT22;55808;48.112;11.552;2022-08-30T12:16:05;31.10;57.90
68813;DHT22;55808;48.112;11.552;2022-08-30T12:24:35;30.00;60.10
68813;DHT22;55808;48.112;11.552;2022-08-30T12:26:38;30.30;59.20
68813;DHT22;55808;48.112;11.552;2022-08-30T12:34:28;29.90;58.90
68813;DHT22;55808;48.112;11.552;2022-08-30T12:37:06;30.70;58.40
68813;DHT22;55808;48.112;11.552;2022-08-30T12:39:36;30.00;57.90
68813;DHT22;55808;48.112;11.552;2022-08-30T12:42:19;29.50;61.40
68813;DHT22;55808;48.112;11.552;2022-08-30T12:44:47;29.80;57.80
68813;DHT22;55808;48.112;11.552;2022-08-30T12:47:17;30.10;60.00
68813;DHT22;55808;48.112;11.552;2022-08-30T12:49:44;30.60;57.80
68813;DHT22;55808;48.112;11.552;2022-08-30T12:57:53;31.40;61.30
68813;DHT22;55808;48.112;11.552;2022-08-30T13:00:25;30.10;57.50
68813;DHT22;55808;48.112;11.552;2022-08-30T13:02:53;28.80;60.90
68813;DHT22;55808;48.112;11.552;2022-08-30T13:05:41;28.30;60.90
68813;DHT22;55808;48.112;11.552;2022-08-30T13:11:08;27.60;64.50
68813;DHT22;55808;48.112;11.552;2022-08-30T13:13:43;27.50;64.00
68813;DHT22;55808;48.112;11.552;2022-08-30T13:18:46;27.30;61.80
68813;DHT22;55808;48.112;11.552;2022-08-30T13:21:30;27.20;64.60
68813;DHT22;55808;48.112;11.552;2022-08-30T13:23:59;27.20;65.20
68813;DHT22;55808;48.112;11.552;2022-08-30T13:26:26;27.20;63.40
68813;DHT22;55808;48.112;11.552;2022-08-30T13:28:55;27.20;64.80
68813;DHT22;55808;48.112;11.552;2022-08-30T13:31:23;27.40;66.10
68813;DHT22;55808;48.112;11.552;2022-08-30T13:33:50;27.50;64.70
68813;DHT22;55808;48.112;11.552;2022-08-30T13:36:19;27.60;65.80
68813;DHT22;55808;48.112;11.552;2022-08-30T13:38:46;27.40;65.80
68813;DHT22;55808;48.112;11.552;2022-08-30T13:41:13;27.20;65.10
68813;DHT22;55808;48.112;11.552;2022-08-30T13:43:39;26.80;65.20
68813;DHT22;55808;48.112;11.552;2022-08-30T13:46:05;26.30;66.90
68813;DHT22;55808;48.112;11.552;2022-08-30T13:48:32;26.00;68.30
68813;DHT22;55808;48.112;11.552;2022-08-30T13:50:58;25.80;67.80
68813;DHT22;55808;48.112;11.552;2022-08-30T13:53:24;26.10;69.90
68813;DHT22;55808;48.112;11.552;2022-08-30T13:55:50;26.50;67.40
68813;DHT22;55808;48.112;11.552;2022-08-30T13:58:16;26.60;65.90
68813;DHT22;55808;48.112;11.552;2022-08-30T14:00:43;26.40;67.00
68813;DHT22;55808;48.112;11.552;2022-08-30T14:03:11;26.30;67.90
68813;DHT22;55808;48.112;11.552;2022-08-30T14:05:38;26.20;69.40
68813;DHT22;55808;48.112;11.552;2022-08-30T14:08:05;26.10;67.10
68813;DHT22;55808;48.112;11.552;2022-08-30T14:10:34;26.00;68.80
68813;DHT22;55808;48.112;11.552;2022-08-30T14:12:59;26.10;69.00
68813;DHT22;55808;48.112;11.552;2022-08-30T14:15:25;26.10;70.00
68813;DHT22;55808;48.112;11.552;2022-08-30T14:17:51;26.10;69.10
68813;DHT22;55808;48.112;11.552;2022-08-30T14:20:17;26.50;68.20
68813;DHT22;55808;48.112;11.552;2022-08-30T14:22:43;26.70;66.50
68813;DHT22;55808;48.112;11.552;2022-08-30T14:25:09;26.70;66.50
68813;DHT22;55808;48.112;11.552;2022-08-30T14:27:35;26.80;66.90
68813;DHT22;55808;48.112;11.552;2022-08-30T14:30:01;26.80;65.90
68813;DHT22;55808;48.112;11.552;2022-08-30T14:32:26;27.00;65.00
68813;DHT22;55808;48.112;11.552;2022-08-30T14:34:55;27.20;65.00
68813;DHT22;55808;48.112;11.552;2022-08-30T14:37:21;27.20;64.60
68813;DHT22;55808;48.112;11.552;2022-08-30T14:39:46;27.40;64.60
68813;DHT22;55808;48.112;11.552;2022-08-30T14:42:12;27.30;63.30
68813;DHT22;55808;48.112;11.552;2022-08-30T14:44:38;27.20;63.10
68813;DHT22;55808;48.112;11.552;2022-08-30T14:47:04;27.20;62.70
68813;DHT22;55808;48.112;11.552;2022-08-30T14:49:30;27.30;62.60
68813;DHT22;55808;48.112;11.552;2022-08-30T14:51:56;27.50;63.20
68813;DHT22;55808;48.112;11.552;2022-08-30T14:54:25;27.60;64.40
68813;DHT22;55808;48.112;11.552;2022-08-30T14:56:52;27.80;62.90
68813;DHT22;55808;48.112;11.552;2022-08-30T14:59:18;28.00;62.90
68813;DHT22;55808;48.112;11.552;2022-08-30T15:01:44;28.00;61.30
68813;DHT22;55808;48.112;11.552;2022-08-30T15:04:11;28.00;60.80
68813;DHT22;55808;48.112;11.552;2022-08-30T15:06:39;28.00;61.80
68813;DHT22;55808;48.112;11.552;2022-08-30T15:09:07;28.00;59.80
68813;DHT22;55808;48.112;11.552;2022-08-30T15:11:34;28.00;60.90
68813;DHT22;55808;48.112;11.552;2022-08-30T15:14:00;28.00;57.70
68813;DHT22;55808;48.112;11.552;2022-08-30T15:16:28;27.90;59.40
68813;DHT22;55808;48.112;11.552;2022-08-30T15:18:56;27.90;59.30
68813;DHT22;55808;48.112;11.552;2022-08-30T15:21:24;27.80;58.70
68813;DHT22;55808;48.112;11.552;2022-08-30T15:23:51;27.80;57.40
68813;DHT22;55808;48.112;11.552;2022-08-30T15:26:17;27.60;62.70
68813;DHT22;55808;48.112;11.552;2022-08-30T15:28:42;27.50;60.20
68813;DHT22;55808;48.112;11.552;2022-08-30T15:31:08;27.60;60.20
68813;DHT22;55808;48.112;11.552;2022-08-30T15:33:34;27.50;59.70
68813;DHT22;55808;48.112;11.552;2022-08-30T15:36:00;27.40;59.70
68813;DHT22;55808;48.112;11.552;2022-08-30T15:38:27;27.40;60.20
68813;DHT22;55808;48.112;11.552;2022-08-30T15:40:55;27.40;60.80
68813;DHT22;55808;48.112;11.552;2022-08-30T15:43:20;27.40;60.00
68813;DHT22;55808;48.112;11.552;2022-08-30T15:45:46;27.30;62.60
68813;DHT22;55808;48.112;11.552;2022-08-30T15:48:12;27.20;60.80
68813;DHT22;55808;48.112;11.552;2022-08-30T15:50:37;27.20;60.80
68813;DHT22;55808;48.112;11.552;2022-08-30T15:53:03;27.10;60.20
68813;DHT22;55808;48.112;11.552;2022-08-30T15:55:31;26.90;61.30
68813;DHT22;55808;48.112;11.552;2022-08-30T15:57:56;26.80;59.80
68813;DHT22;55808;48.112;11.552;2022-08-30T16:00:22;26.90;59.10
68813;DHT22;55808;48.112;11.552;2022-08-30T16:02:48;26.80;60.80
68813;DHT22;55808;48.112;11.552;2022-08-30T16:05:15;26.80;61.40
68813;DHT22;55808;48.112;11.552;2022-08-30T16:07:42;26.60;62.40
68813;DHT22;55808;48.112;11.552;2022-08-30T16:10:12;26.40;63.30
68813;DHT22;55808;48.112;11.552;2022-08-30T16:12:38;26.30;62.40
68813;DHT22;55808;48.112;11.552;2022-08-30T16:15:04;26.10;62.70
68813;DHT22;55808;48.112;11.552;2022-08-30T16:17:29;26.00;64.90
68813;DHT22;55808;48.112;11.552;2022-08-30T16:19:55;25.80;63.60
68813;DHT22;55808;48.112;11.552;2022-08-30T16:22:20;25.70;63.10
68813;DHT22;55808;48.112;11.552;2022-08-30T16:24:47;25.50;64.70
68813;DHT22;55808;48.112;11.552;2022-08-30T16:27:13;25.30;61.70
68813;DHT22;55808;48.112;11.552;2022-08-30T16:29:39;25.30;63.10
68813;DHT22;55808;48.112;11.552;2022-08-30T16:32:05;25.40;63.20
68813;DHT22;55808;48.112;11.552;2022-08-30T16:34:31;25.60;65.90
68813;DHT22;55808;48.112;11.552;2022-08-30T16:36:56;25.60;63.60
68813;DHT22;55808;48.112;11.552;2022-08-30T16:39:22;25.70;65.50
68813;DHT22;55808;48.112;11.552;2022-08-30T16:41:48;25.50;64.10
68813;DHT22;55808;48.112;11.552;2022-08-30T16:44:13;25.40;63.30
68813;DHT22;55808;48.112;11.552;2022-08-30T16:46:40;25.30;63.90
68813;DHT22;55808;48.112;11.552;2022-08-30T16:49:06;25.30;65.30
68813;DHT22;55808;48.112;11.552;2022-08-30T16:51:33;25.10;65.60
68813;DHT22;55808;48.112;11.552;2022-08-30T16:54:03;25.00;66.70